createdAt,value
2018-07-03T00:03:25.795Z,3.03
2018-07-03T00:08:29.069Z,2.27
2018-07-03T00:13:32.360Z,2.40
2018-07-03T00:18:35.623Z,1.00
2018-07-03T00:23:38.881Z,3.70
2018-07-03T00:28:42.141Z,0.83
2018-07-03T00:33:45.397Z,0.93
2018-07-03T00:38:48.665Z,1.00
2018-07-03T00:43:52.024Z,2.10
2018-07-03T00:48:55.293Z,1.33
2018-07-03T00:53:58.571Z,1.33
2018-07-03T00:59:01.922Z,2.60
2018-07-03T01:04:05.178Z,1.57
2018-07-03T01:09:09.233Z,3.23
2018-07-03T01:14:12.504Z,1.47
2018-07-03T01:19:15.769Z,2.23
2018-07-03T01:24:19.035Z,1.50
2018-07-03T01:29:22.295Z,1.33
2018-07-03T01:34:27.549Z,2.87
2018-07-03T01:39:30.808Z,3.20
2018-07-03T01:44:34.076Z,2.20
2018-07-03T01:49:37.368Z,1.77
2018-07-03T01:54:47.023Z,2.47
2018-07-03T01:59:50.305Z,2.40
2018-07-03T02:04:53.555Z,1.20
2018-07-03T02:09:56.820Z,1.17
2018-07-03T02:15:00.112Z,2.60
2018-07-03T02:20:03.459Z,1.93
2018-07-03T02:25:06.720Z,1.20
2018-07-03T02:30:09.982Z,1.70
2018-07-03T02:35:13.242Z,1.30
2018-07-03T02:40:16.501Z,1.20
2018-07-03T02:45:19.796Z,1.50
2018-07-03T02:50:23.042Z,1.03
2018-07-03T02:55:26.317Z,1.10
2018-07-03T03:00:29.587Z,1.20
2018-07-03T03:05:32.864Z,2.03
2018-07-03T03:10:36.123Z,1.40
2018-07-03T03:15:39.379Z,2.43
2018-07-03T03:20:42.648Z,1.83
2018-07-03T03:25:45.905Z,1.80
2018-07-03T03:30:49.172Z,3.50
2018-07-03T03:35:52.455Z,3.77
2018-07-03T03:40:55.702Z,1.10
2018-07-03T03:45:58.980Z,2.13
2018-07-03T03:51:02.251Z,2.60
2018-07-03T03:56:05.566Z,2.43
2018-07-03T04:01:08.827Z,1.20
2018-07-03T04:06:12.034Z,2.60
2018-07-03T04:11:15.300Z,1.27
2018-07-03T04:16:18.571Z,2.47
2018-07-03T04:21:21.833Z,1.87
2018-07-03T04:26:24.840Z,2.47
2018-07-03T04:31:27.841Z,3.80
2018-07-03T04:36:31.118Z,1.60
2018-07-03T04:41:34.407Z,2.70
2018-07-03T04:46:37.665Z,1.50
2018-07-03T04:51:40.940Z,1.50
2018-07-03T04:56:44.201Z,1.50
2018-07-03T05:01:47.202Z,2.50
2018-07-03T05:06:50.472Z,1.53
2018-07-03T05:11:53.744Z,1.97
2018-07-03T05:16:57.001Z,2.33
2018-07-03T05:22:00.337Z,2.13
2018-07-03T05:27:03.618Z,3.37
2018-07-03T05:37:16.620Z,2.47
2018-07-03T05:42:19.847Z,3.70
2018-07-03T05:47:23.112Z,3.37
2018-07-03T05:52:26.402Z,1.97
2018-07-03T05:57:29.679Z,5.53
2018-07-03T06:02:32.957Z,4.30
2018-07-03T06:07:36.235Z,2.47
2018-07-03T06:12:39.488Z,0.87
2018-07-03T06:17:42.760Z,1.80
2018-07-03T06:22:46.026Z,1.23
2018-07-03T06:27:49.326Z,3.40
2018-07-03T06:32:52.603Z,2.07
2018-07-03T06:37:55.862Z,1.75
2018-07-03T06:42:59.144Z,3.33
2018-07-03T06:48:02.444Z,2.08
2018-07-03T06:53:05.707Z,1.80
2018-07-03T06:58:09.007Z,2.70
2018-07-03T07:03:12.104Z,1.32
2018-07-03T07:08:15.490Z,4.90
2018-07-03T07:13:18.764Z,1.85
2018-07-03T07:18:22.035Z,4.55
2018-07-03T07:23:25.058Z,1.32
2018-07-03T07:28:28.698Z,1.45
2018-07-03T07:33:31.947Z,2.40
2018-07-03T07:38:35.224Z,1.67
2018-07-03T07:43:38.583Z,1.45
2018-07-03T07:48:41.858Z,1.95
2018-07-03T07:53:45.171Z,3.50
2018-07-03T07:58:48.457Z,2.12
2018-07-03T08:03:51.739Z,2.83
2018-07-03T08:08:55.016Z,1.60
2018-07-03T08:13:58.300Z,1.40
2018-07-03T08:19:01.574Z,1.07
2018-07-03T08:24:04.705Z,1.77
2018-07-03T08:29:07.993Z,2.75
2018-07-03T08:34:11.250Z,1.12
2018-07-03T08:39:14.538Z,2.25
2018-07-03T08:44:17.884Z,1.70
2018-07-03T08:49:21.180Z,2.22
2018-07-03T08:54:24.447Z,1.30
2018-07-03T08:59:27.534Z,2.75
2018-07-03T09:04:30.807Z,2.25
2018-07-03T09:09:34.079Z,2.67
2018-07-03T09:14:37.099Z,1.60
2018-07-03T09:19:40.364Z,1.55
2018-07-03T09:24:43.634Z,0.93
2018-07-03T09:29:46.897Z,1.55
2018-07-03T09:34:50.164Z,1.52
2018-07-03T09:39:53.456Z,3.40
2018-07-03T09:44:57.360Z,0.50
2018-07-03T09:50:00.620Z,0.70
2018-07-03T09:55:03.950Z,0.70
2018-07-03T10:00:07.595Z,1.82
2018-07-03T10:05:10.615Z,4.00
2018-07-03T10:10:13.967Z,1.20
2018-07-03T10:15:17.286Z,1.15
2018-07-03T10:20:20.543Z,1.15
2018-07-03T10:25:23.807Z,1.42
2018-07-03T10:30:27.109Z,2.72
2018-07-03T10:35:30.361Z,1.82
2018-07-03T10:40:33.356Z,3.15
2018-07-03T10:45:36.640Z,1.35
2018-07-03T10:50:39.938Z,1.62
2018-07-03T10:55:43.240Z,17.30
2018-07-03T11:00:46.505Z,0.98
2018-07-03T11:05:49.904Z,0.95
2018-07-03T11:10:53.173Z,0.70
2018-07-03T11:15:56.496Z,0.90
2018-07-03T11:20:59.759Z,0.98
2018-07-03T11:26:03.024Z,1.98
2018-07-03T11:31:06.284Z,0.50
2018-07-03T11:36:09.538Z,0.82
2018-07-03T11:41:12.782Z,1.42
2018-07-03T11:46:16.062Z,0.57
2018-07-03T11:51:19.320Z,0.82
2018-07-03T11:56:22.583Z,1.95
2018-07-03T12:01:25.959Z,0.70
2018-07-03T12:06:29.239Z,3.35
2018-07-03T12:11:32.496Z,1.65
2018-07-03T12:16:35.739Z,1.22
2018-07-03T12:21:39.035Z,1.25
2018-07-03T12:26:42.300Z,1.07
2018-07-03T12:31:45.302Z,1.50
2018-07-03T12:36:48.377Z,0.95
2018-07-03T12:41:51.619Z,1.87
2018-07-03T12:46:54.922Z,1.60
2018-07-03T12:51:58.189Z,1.87
2018-07-03T12:57:01.475Z,3.77
2018-07-03T13:02:04.788Z,2.40
2018-07-03T13:07:08.065Z,4.65
2018-07-03T13:12:11.332Z,1.50
2018-07-03T13:17:14.619Z,1.10
2018-07-03T13:22:17.894Z,1.25
2018-07-03T13:27:21.267Z,1.37
2018-07-03T13:32:24.508Z,2.02
2018-07-03T13:37:27.772Z,1.62
2018-07-03T13:42:31.070Z,1.70
2018-07-03T13:47:34.408Z,1.50
2018-07-03T13:52:37.701Z,1.65
2018-07-03T13:57:40.988Z,0.78
2018-07-03T14:02:44.252Z,0.60
2018-07-03T14:07:47.520Z,2.98
2018-07-03T14:12:50.788Z,2.00
2018-07-03T14:17:54.063Z,0.98
2018-07-03T14:22:57.332Z,0.80
2018-07-03T14:28:00.601Z,1.37
2018-07-03T14:33:04.064Z,2.20
2018-07-03T14:38:07.175Z,3.65
2018-07-03T14:43:10.468Z,1.20
2018-07-03T14:48:13.736Z,1.27
2018-07-03T14:53:16.988Z,1.25
2018-07-03T14:58:20.240Z,3.87
2018-07-03T15:03:23.535Z,1.52
2018-07-03T15:08:26.815Z,1.50
2018-07-03T15:13:30.086Z,1.15
2018-07-03T15:18:38.886Z,2.95
2018-07-03T15:25:11.184Z,1.70
2018-07-03T15:30:18.285Z,0.80
2018-07-03T15:36:24.567Z,1.72
2018-07-03T15:41:27.558Z,2.20
2018-07-03T15:46:30.560Z,1.10
2018-07-03T15:51:34.069Z,1.60
2018-07-03T15:56:37.511Z,0.80
2018-07-03T16:01:40.785Z,2.47
2018-07-03T16:07:21.826Z,2.07
2018-07-03T16:12:25.225Z,1.63
2018-07-03T16:17:28.891Z,2.37
2018-07-03T16:22:32.331Z,3.57
2018-07-03T16:27:35.858Z,1.90
2018-07-03T16:32:39.130Z,1.77
2018-07-03T16:37:42.613Z,1.07
2018-07-03T16:42:45.775Z,2.23
2018-07-03T16:47:49.067Z,0.90
2018-07-03T16:52:52.948Z,2.50
2018-07-03T16:57:56.718Z,1.13
2018-07-03T17:03:00.611Z,1.97
2018-07-03T17:08:03.972Z,3.23
2018-07-03T17:13:07.336Z,2.93
2018-07-03T17:18:10.654Z,3.17
2018-07-03T17:23:13.974Z,1.93
2018-07-03T17:28:17.260Z,1.00
2018-07-03T17:33:20.711Z,0.90
2018-07-03T17:38:24.002Z,1.67
2018-07-03T17:44:10.085Z,3.13
2018-07-03T17:49:13.083Z,1.90
2018-07-03T17:54:16.346Z,2.80
2018-07-03T17:59:19.626Z,3.27
2018-07-03T18:04:22.619Z,1.60
2018-07-03T18:09:25.625Z,1.37
2018-07-03T18:14:28.977Z,0.77
2018-07-03T18:19:37.632Z,5.73
2018-07-03T18:24:40.989Z,1.47
2018-07-03T18:29:44.046Z,5.40
2018-07-03T18:34:47.344Z,2.40
2018-07-03T18:39:50.936Z,2.30
2018-07-03T18:44:54.173Z,2.93
2018-07-03T18:49:57.408Z,0.93
2018-07-03T18:55:00.676Z,0.70
2018-07-03T19:00:04.566Z,2.87
2018-07-03T19:05:07.839Z,2.13
2018-07-03T19:10:11.137Z,4.33
2018-07-03T19:15:14.480Z,3.57
2018-07-03T19:20:17.728Z,1.47
2018-07-03T19:25:21.019Z,3.37
2018-07-03T19:30:24.302Z,2.87
2018-07-03T19:35:27.591Z,2.93
2018-07-03T19:40:30.846Z,2.70
2018-07-03T19:45:34.122Z,2.23
2018-07-03T19:50:37.398Z,6.77
2018-07-03T19:55:40.763Z,3.13
2018-07-03T20:00:51.503Z,1.63
2018-07-03T20:05:54.801Z,3.33
2018-07-03T20:10:58.058Z,1.53
2018-07-03T20:16:01.326Z,2.30
2018-07-03T20:21:04.752Z,1.63
2018-07-03T20:26:08.903Z,1.50
2018-07-03T20:31:12.171Z,2.97
2018-07-03T20:36:15.201Z,3.93
2018-07-03T20:41:18.468Z,2.37
2018-07-03T20:46:21.855Z,2.00
2018-07-03T20:51:25.144Z,3.70
2018-07-03T20:56:28.408Z,3.37
2018-07-03T21:01:31.664Z,1.50
2018-07-03T21:06:34.942Z,1.70
2018-07-03T21:11:38.286Z,1.87
2018-07-03T21:16:41.502Z,2.40
2018-07-03T21:21:44.500Z,2.13
2018-07-03T21:26:47.769Z,2.60
2018-07-03T21:31:51.190Z,2.13
2018-07-03T21:36:54.106Z,1.60
2018-07-03T21:41:57.387Z,6.83
2018-07-03T21:47:00.641Z,2.90
2018-07-03T21:52:03.888Z,1.73
2018-07-03T21:57:07.201Z,3.13
2018-07-03T22:02:10.206Z,1.90
2018-07-03T22:07:13.491Z,3.37
2018-07-03T22:12:16.763Z,3.50
2018-07-03T22:17:19.752Z,3.57
2018-07-03T22:22:23.031Z,4.60
2018-07-03T22:27:26.287Z,3.23
2018-07-03T22:32:29.271Z,2.57
2018-07-03T22:37:32.531Z,2.53
2018-07-03T22:42:35.534Z,2.50
2018-07-03T22:47:38.528Z,4.60
2018-07-03T22:52:41.798Z,18.33
2018-07-03T22:57:45.072Z,32.90
2018-07-03T23:02:48.345Z,92.97
2018-07-03T23:07:51.644Z,75.23
2018-07-03T23:12:54.883Z,51.30
2018-07-03T23:17:58.138Z,41.83
2018-07-03T23:23:01.406Z,52.67
2018-07-03T23:28:04.690Z,44.20
2018-07-03T23:33:08.148Z,99.10
2018-07-03T23:38:11.444Z,137.97
2018-07-03T23:43:14.824Z,47.23
2018-07-03T23:48:24.324Z,19.20
2018-07-03T23:53:39.172Z,10.87
2018-07-03T23:58:47.944Z,5.80
